sensor_id;sensor_type;location;lat;lon;timestamp;P1;durP1;ratioP1;P2;durP2;ratioP2
55090;SDS011;40985;53.180;5.800;2023-08-01T00:00:31;6.18;;;1.85;;
55090;SDS011;40985;53.180;5.800;2023-08-01T00:02:58;4.40;;;1.20;;
55090;SDS011;40985;53.180;5.800;2023-08-01T00:05:24;10.57;;;1.52;;
55090;SDS011;40985;53.180;5.800;2023-08-01T00:07:50;7.05;;;1.73;;
55090;SDS011;40985;53.180;5.800;2023-08-01T00:10:16;7.90;;;1.50;;
55090;SDS011;40985;53.180;5.800;2023-08-01T00:12:42;5.57;;;1.42;;
55090;SDS011;40985;53.180;5.800;2023-08-01T00:15:08;7.60;;;1.65;;
55090;SDS011;40985;53.180;5.800;2023-08-01T00:17:34;4.90;;;1.42;;
55090;SDS011;40985;53.180;5.800;2023-08-01T00:20:00;7.70;;;1.20;;
55090;SDS011;40985;53.180;5.800;2023-08-01T00:22:27;4.78;;;1.55;;
55090;SDS011;40985;53.180;5.800;2023-08-01T00:24:53;7.93;;;1.98;;
55090;SDS011;40985;53.180;5.800;2023-08-01T00:27:18;9.05;;;1.48;;
55090;SDS011;40985;53.180;5.800;2023-08-01T00:29:44;10.57;;;1.77;;
55090;SDS011;40985;53.180;5.800;2023-08-01T00:32:10;6.40;;;1.27;;
55090;SDS011;40985;53.180;5.800;2023-08-01T00:34:36;6.00;;;1.42;;
55090;SDS011;40985;53.180;5.800;2023-08-01T00:37:02;6.43;;;1.80;;
55090;SDS011;40985;53.180;5.800;2023-08-01T00:39:27;6.25;;;1.60;;
55090;SDS011;40985;53.180;5.800;2023-08-01T00:41:53;10.02;;;2.08;;
55090;SDS011;40985;53.180;5.800;2023-08-01T00:44:19;8.98;;;1.95;;
55090;SDS011;40985;53.180;5.800;2023-08-01T00:46:44;11.27;;;1.88;;
55090;SDS011;40985;53.180;5.800;2023-08-01T00:49:10;7.95;;;2.50;;
55090;SDS011;40985;53.180;5.800;2023-08-01T00:51:37;9.45;;;3.17;;
55090;SDS011;40985;53.180;5.800;2023-08-01T00:54:02;8.90;;;3.05;;
55090;SDS011;40985;53.180;5.800;2023-08-01T00:56:28;9.30;;;2.50;;
55090;SDS011;40985;53.180;5.800;2023-08-01T00:58:54;7.70;;;2.17;;
55090;SDS011;40985;53.180;5.800;2023-08-01T01:01:20;8.00;;;2.25;;
55090;SDS011;40985;53.180;5.800;2023-08-01T01:03:45;6.22;;;1.70;;
55090;SDS011;40985;53.180;5.800;2023-08-01T01:06:12;9.07;;;2.45;;
55090;SDS011;40985;53.180;5.800;2023-08-01T01:08:42;7.13;;;2.13;;
55090;SDS011;40985;53.180;5.800;2023-08-01T01:11:08;9.18;;;2.08;;
55090;SDS011;40985;53.180;5.800;2023-08-01T01:13:34;5.57;;;1.60;;
55090;SDS011;40985;53.180;5.800;2023-08-01T01:16:00;7.88;;;2.83;;
55090;SDS011;40985;53.180;5.800;2023-08-01T01:18:25;8.02;;;2.15;;
55090;SDS011;40985;53.180;5.800;2023-08-01T01:20:51;6.15;;;2.47;;
55090;SDS011;40985;53.180;5.800;2023-08-01T01:23:17;5.15;;;2.20;;
55090;SDS011;40985;53.180;5.800;2023-08-01T01:25:44;8.23;;;2.60;;
55090;SDS011;40985;53.180;5.800;2023-08-01T01:28:11;7.60;;;2.63;;
55090;SDS011;40985;53.180;5.800;2023-08-01T01:30:39;8.18;;;3.03;;
55090;SDS011;40985;53.180;5.800;2023-08-01T01:33:06;4.45;;;2.85;;
55090;SDS011;40985;53.180;5.800;2023-08-01T01:35:33;11.18;;;3.50;;
55090;SDS011;40985;53.180;5.800;2023-08-01T01:37:59;7.38;;;3.20;;
55090;SDS011;40985;53.180;5.800;2023-08-01T01:40:29;10.88;;;3.92;;
55090;SDS011;40985;53.180;5.800;2023-08-01T01:42:55;6.82;;;3.05;;
55090;SDS011;40985;53.180;5.800;2023-08-01T01:45:21;7.53;;;3.28;;
55090;SDS011;40985;53.180;5.800;2023-08-01T01:47:47;9.23;;;3.03;;
55090;SDS011;40985;53.180;5.800;2023-08-01T01:50:12;9.70;;;3.42;;
55090;SDS011;40985;53.180;5.800;2023-08-01T01:52:39;8.43;;;3.70;;
55090;SDS011;40985;53.180;5.800;2023-08-01T01:55:05;7.95;;;3.95;;
55090;SDS011;40985;53.180;5.800;2023-08-01T01:57:31;12.52;;;4.25;;
55090;SDS011;40985;53.180;5.800;2023-08-01T01:59:56;10.90;;;4.15;;
55090;SDS011;40985;53.180;5.800;2023-08-01T02:02:22;7.75;;;3.92;;
55090;SDS011;40985;53.180;5.800;2023-08-01T02:04:49;8.20;;;3.75;;
55090;SDS011;40985;53.180;5.800;2023-08-01T02:07:15;7.55;;;3.60;;
55090;SDS011;40985;53.180;5.800;2023-08-01T02:09:41;8.60;;;4.05;;
55090;SDS011;40985;53.180;5.800;2023-08-01T02:12:07;10.82;;;4.47;;
55090;SDS011;40985;53.180;5.800;2023-08-01T02:14:34;18.25;;;6.00;;
55090;SDS011;40985;53.180;5.800;2023-08-01T02:17:01;13.05;;;5.00;;
55090;SDS011;40985;53.180;5.800;2023-08-01T02:19:27;11.63;;;4.70;;
55090;SDS011;40985;53.180;5.800;2023-08-01T02:21:53;7.93;;;4.43;;
55090;SDS011;40985;53.180;5.800;2023-08-01T02:24:19;17.33;;;5.40;;
55090;SDS011;40985;53.180;5.800;2023-08-01T02:26:44;11.07;;;4.13;;
55090;SDS011;40985;53.180;5.800;2023-08-01T02:29:10;9.70;;;4.25;;
55090;SDS011;40985;53.180;5.800;2023-08-01T02:31:36;10.48;;;3.40;;
55090;SDS011;40985;53.180;5.800;2023-08-01T02:34:01;8.82;;;2.38;;
55090;SDS011;40985;53.180;5.800;2023-08-01T02:36:27;16.20;;;2.72;;
55090;SDS011;40985;53.180;5.800;2023-08-01T02:38:53;7.15;;;1.58;;
55090;SDS011;40985;53.180;5.800;2023-08-01T02:41:18;12.85;;;2.15;;
55090;SDS011;40985;53.180;5.800;2023-08-01T02:43:44;9.73;;;1.10;;
55090;SDS011;40985;53.180;5.800;2023-08-01T02:46:10;9.93;;;1.30;;
55090;SDS011;40985;53.180;5.800;2023-08-01T02:48:35;7.32;;;0.80;;
55090;SDS011;40985;53.180;5.800;2023-08-01T02:51:01;7.35;;;0.85;;
55090;SDS011;40985;53.180;5.800;2023-08-01T02:53:27;6.95;;;1.08;;
55090;SDS011;40985;53.180;5.800;2023-08-01T02:55:53;5.68;;;0.50;;
55090;SDS011;40985;53.180;5.800;2023-08-01T02:58:19;6.18;;;0.82;;
55090;SDS011;40985;53.180;5.800;2023-08-01T03:00:44;9.48;;;0.73;;
55090;SDS011;40985;53.180;5.800;2023-08-01T03:03:10;6.25;;;0.40;;
55090;SDS011;40985;53.180;5.800;2023-08-01T03:05:36;5.10;;;0.30;;
55090;SDS011;40985;53.180;5.800;2023-08-01T03:08:05;7.32;;;0.30;;
55090;SDS011;40985;53.180;5.800;2023-08-01T03:10:30;7.43;;;0.40;;
55090;SDS011;40985;53.180;5.800;2023-08-01T03:12:56;4.32;;;0.40;;
55090;SDS011;40985;53.180;5.800;2023-08-01T03:15:22;8.43;;;0.50;;
55090;SDS011;40985;53.180;5.800;2023-08-01T03:17:47;2.45;;;0.40;;
55090;SDS011;40985;53.180;5.800;2023-08-01T03:20:13;7.07;;;0.50;;
55090;SDS011;40985;53.180;5.800;2023-08-01T03:22:39;6.05;;;0.52;;
55090;SDS011;40985;53.180;5.800;2023-08-01T03:25:05;4.82;;;0.60;;
55090;SDS011;40985;53.180;5.800;2023-08-01T03:27:35;4.57;;;0.40;;
55090;SDS011;40985;53.180;5.800;2023-08-01T03:30:00;4.43;;;0.70;;
55090;SDS011;40985;53.180;5.800;2023-08-01T03:32:26;4.05;;;0.40;;
55090;SDS011;40985;53.180;5.800;2023-08-01T03:34:52;4.82;;;0.40;;
55090;SDS011;40985;53.180;5.800;2023-08-01T03:37:18;4.03;;;0.40;;
55090;SDS011;40985;53.180;5.800;2023-08-01T03:39:44;6.72;;;0.60;;
55090;SDS011;40985;53.180;5.800;2023-08-01T03:42:10;6.50;;;0.90;;
55090;SDS011;40985;53.180;5.800;2023-08-01T03:44:35;4.00;;;0.30;;
55090;SDS011;40985;53.180;5.800;2023-08-01T03:47:01;4.47;;;0.30;;
55090;SDS011;40985;53.180;5.800;2023-08-01T03:49:27;4.80;;;0.40;;
55090;SDS011;40985;53.180;5.800;2023-08-01T03:51:53;4.15;;;0.40;;
55090;SDS011;40985;53.180;5.800;2023-08-01T03:54:18;10.38;;;0.73;;
55090;SDS011;40985;53.180;5.800;2023-08-01T03:56:44;4.88;;;0.65;;
55090;SDS011;40985;53.180;5.800;2023-08-01T03:59:12;7.10;;;0.70;;
55090;SDS011;40985;53.180;5.800;2023-08-01T04:01:40;7.38;;;0.90;;
55090;SDS011;40985;53.180;5.800;2023-08-01T04:04:07;4.10;;;0.60;;
55090;SDS011;40985;53.180;5.800;2023-08-01T04:06:36;4.82;;;0.40;;
55090;SDS011;40985;53.180;5.800;2023-08-01T04:09:02;6.38;;;1.02;;
55090;SDS011;40985;53.180;5.800;2023-08-01T04:11:27;6.03;;;0.60;;
55090;SDS011;40985;53.180;5.800;2023-08-01T04:13:55;9.43;;;1.13;;
55090;SDS011;40985;53.180;5.800;2023-08-01T04:16:21;7.22;;;1.00;;
55090;SDS011;40985;53.180;5.800;2023-08-01T04:18:47;9.15;;;0.95;;
55090;SDS011;40985;53.180;5.800;2023-08-01T04:21:13;5.00;;;1.05;;
55090;SDS011;40985;53.180;5.800;2023-08-01T04:23:40;7.88;;;1.05;;
55090;SDS011;40985;53.180;5.800;2023-08-01T04:26:06;6.22;;;1.08;;
55090;SDS011;40985;53.180;5.800;2023-08-01T04:28:32;7.88;;;1.58;;
55090;SDS011;40985;53.180;5.800;2023-08-01T04:30:58;6.20;;;1.60;;
55090;SDS011;40985;53.180;5.800;2023-08-01T04:33:23;4.22;;;1.27;;
55090;SDS011;40985;53.180;5.800;2023-08-01T04:35:49;4.93;;;1.00;;
55090;SDS011;40985;53.180;5.800;2023-08-01T04:38:15;4.43;;;1.27;;
55090;SDS011;40985;53.180;5.800;2023-08-01T04:40:41;9.60;;;1.77;;
55090;SDS011;40985;53.180;5.800;2023-08-01T04:43:07;7.35;;;1.63;;
55090;SDS011;40985;53.180;5.800;2023-08-01T04:45:33;5.88;;;0.95;;
55090;SDS011;40985;53.180;5.800;2023-08-01T04:47:58;5.65;;;1.42;;
55090;SDS011;40985;53.180;5.800;2023-08-01T04:50:24;6.45;;;1.20;;
55090;SDS011;40985;53.180;5.800;2023-08-01T04:52:50;5.88;;;1.15;;
55090;SDS011;40985;53.180;5.800;2023-08-01T04:55:15;9.80;;;1.60;;
55090;SDS011;40985;53.180;5.800;2023-08-01T04:57:41;10.93;;;1.95;;
55090;SDS011;40985;53.180;5.800;2023-08-01T05:00:08;8.18;;;1.40;;
55090;SDS011;40985;53.180;5.800;2023-08-01T05:02:35;13.80;;;1.85;;
55090;SDS011;40985;53.180;5.800;2023-08-01T05:05:00;9.10;;;1.10;;
55090;SDS011;40985;53.180;5.800;2023-08-01T05:07:26;10.20;;;1.42;;
55090;SDS011;40985;53.180;5.800;2023-08-01T05:09:52;7.68;;;1.15;;
55090;SDS011;40985;53.180;5.800;2023-08-01T05:12:17;9.85;;;1.58;;
55090;SDS011;40985;53.180;5.800;2023-08-01T05:14:43;7.40;;;0.75;;
55090;SDS011;40985;53.180;5.800;2023-08-01T05:17:09;5.53;;;0.60;;
55090;SDS011;40985;53.180;5.800;2023-08-01T05:19:34;3.92;;;0.30;;
55090;SDS011;40985;53.180;5.800;2023-08-01T05:22:00;8.60;;;0.47;;
55090;SDS011;40985;53.180;5.800;2023-08-01T05:24:26;4.63;;;0.50;;
55090;SDS011;40985;53.180;5.800;2023-08-01T05:26:52;8.45;;;0.30;;
55090;SDS011;40985;53.180;5.800;2023-08-01T05:29:17;2.60;;;0.20;;
55090;SDS011;40985;53.180;5.800;2023-08-01T05:31:43;3.35;;;0.20;;
55090;SDS011;40985;53.180;5.800;2023-08-01T05:34:09;3.88;;;0.20;;
55090;SDS011;40985;53.180;5.800;2023-08-01T05:36:34;3.67;;;0.20;;
55090;SDS011;40985;53.180;5.800;2023-08-01T05:39:02;7.57;;;0.20;;
55090;SDS011;40985;53.180;5.800;2023-08-01T05:41:28;5.13;;;0.35;;
55090;SDS011;40985;53.180;5.800;2023-08-01T05:43:54;5.57;;;0.20;;
55090;SDS011;40985;53.180;5.800;2023-08-01T05:46:20;4.30;;;0.40;;
55090;SDS011;40985;53.180;5.800;2023-08-01T05:48:46;4.43;;;0.70;;
55090;SDS011;40985;53.180;5.800;2023-08-01T05:51:11;6.22;;;0.30;;
55090;SDS011;40985;53.180;5.800;2023-08-01T05:53:37;5.70;;;0.40;;
55090;SDS011;40985;53.180;5.800;2023-08-01T05:56:03;6.18;;;0.93;;
55090;SDS011;40985;53.180;5.800;2023-08-01T05:58:30;5.05;;;0.40;;
55090;SDS011;40985;53.180;5.800;2023-08-01T06:00:56;9.73;;;0.40;;
55090;SDS011;40985;53.180;5.800;2023-08-01T06:03:21;7.72;;;0.60;;
55090;SDS011;40985;53.180;5.800;2023-08-01T06:05:47;6.40;;;0.30;;
55090;SDS011;40985;53.180;5.800;2023-08-01T06:08:13;5.75;;;0.30;;
55090;SDS011;40985;53.180;5.800;2023-08-01T06:10:40;5.68;;;0.38;;
55090;SDS011;40985;53.180;5.800;2023-08-01T06:13:06;4.35;;;0.40;;
55090;SDS011;40985;53.180;5.800;2023-08-01T06:15:32;4.57;;;0.30;;
55090;SDS011;40985;53.180;5.800;2023-08-01T06:17:58;6.13;;;0.45;;
55090;SDS011;40985;53.180;5.800;2023-08-01T06:20:24;7.43;;;1.00;;
55090;SDS011;40985;53.180;5.800;2023-08-01T06:22:50;8.88;;;0.52;;
55090;SDS011;40985;53.180;5.800;2023-08-01T06:25:15;7.80;;;0.20;;
55090;SDS011;40985;53.180;5.800;2023-08-01T06:27:41;4.53;;;0.30;;
55090;SDS011;40985;53.180;5.800;2023-08-01T06:30:07;9.23;;;0.30;;
55090;SDS011;40985;53.180;5.800;2023-08-01T06:32:33;8.38;;;0.30;;
55090;SDS011;40985;53.180;5.800;2023-08-01T06:34:58;8.65;;;0.40;;
55090;SDS011;40985;53.180;5.800;2023-08-01T06:37:24;6.20;;;0.30;;
55090;SDS011;40985;53.180;5.800;2023-08-01T06:39:50;7.13;;;0.52;;
55090;SDS011;40985;53.180;5.800;2023-08-01T06:42:15;7.07;;;0.47;;
55090;SDS011;40985;53.180;5.800;2023-08-01T06:44:41;8.38;;;0.60;;
55090;SDS011;40985;53.180;5.800;2023-08-01T06:47:07;6.93;;;0.73;;
55090;SDS011;40985;53.180;5.800;2023-08-01T06:49:33;10.02;;;0.57;;
55090;SDS011;40985;53.180;5.800;2023-08-01T06:51:58;7.22;;;0.65;;
55090;SDS011;40985;53.180;5.800;2023-08-01T06:54:24;7.57;;;0.63;;
55090;SDS011;40985;53.180;5.800;2023-08-01T06:56:50;7.50;;;0.50;;
55090;SDS011;40985;53.180;5.800;2023-08-01T06:59:15;7.22;;;0.50;;
55090;SDS011;40985;53.180;5.800;2023-08-01T07:01:42;7.95;;;0.70;;
55090;SDS011;40985;53.180;5.800;2023-08-01T07:04:12;8.30;;;0.80;;
55090;SDS011;40985;53.180;5.800;2023-08-01T07:06:38;11.25;;;0.75;;
55090;SDS011;40985;53.180;5.800;2023-08-01T07:09:06;9.18;;;0.50;;
55090;SDS011;40985;53.180;5.800;2023-08-01T07:11:32;7.53;;;0.40;;
55090;SDS011;40985;53.180;5.800;2023-08-01T07:13:58;9.25;;;1.30;;
55090;SDS011;40985;53.180;5.800;2023-08-01T07:16:24;9.10;;;0.63;;
55090;SDS011;40985;53.180;5.800;2023-08-01T07:18:50;9.00;;;1.17;;
55090;SDS011;40985;53.180;5.800;2023-08-01T07:21:16;10.38;;;0.82;;
55090;SDS011;40985;53.180;5.800;2023-08-01T07:23:41;10.43;;;0.50;;
55090;SDS011;40985;53.180;5.800;2023-08-01T07:26:07;7.60;;;0.45;;
55090;SDS011;40985;53.180;5.800;2023-08-01T07:28:33;10.63;;;1.08;;
55090;SDS011;40985;53.180;5.800;2023-08-01T07:31:03;7.50;;;0.43;;
55090;SDS011;40985;53.180;5.800;2023-08-01T07:33:30;8.90;;;0.38;;
55090;SDS011;40985;53.180;5.800;2023-08-01T07:35:56;5.75;;;0.45;;
55090;SDS011;40985;53.180;5.800;2023-08-01T07:38:22;6.82;;;0.40;;
55090;SDS011;40985;53.180;5.800;2023-08-01T07:40:48;8.95;;;0.40;;
55090;SDS011;40985;53.180;5.800;2023-08-01T07:43:14;5.57;;;0.52;;
55090;SDS011;40985;53.180;5.800;2023-08-01T07:45:40;6.57;;;0.63;;
55090;SDS011;40985;53.180;5.800;2023-08-01T07:48:06;4.30;;;0.30;;
55090;SDS011;40985;53.180;5.800;2023-08-01T07:50:31;7.07;;;0.55;;
55090;SDS011;40985;53.180;5.800;2023-08-01T07:52:57;6.07;;;0.57;;
55090;SDS011;40985;53.180;5.800;2023-08-01T07:55:23;7.22;;;0.77;;
55090;SDS011;40985;53.180;5.800;2023-08-01T07:57:48;11.63;;;0.50;;
55090;SDS011;40985;53.180;5.800;2023-08-01T08:00:14;9.85;;;0.68;;
55090;SDS011;40985;53.180;5.800;2023-08-01T08:02:41;5.97;;;0.60;;
55090;SDS011;40985;53.180;5.800;2023-08-01T08:05:07;6.82;;;0.85;;
55090;SDS011;40985;53.180;5.800;2023-08-01T08:07:33;9.25;;;1.13;;
55090;SDS011;40985;53.180;5.800;2023-08-01T08:09:59;7.40;;;0.40;;
55090;SDS011;40985;53.180;5.800;2023-08-01T08:12:25;4.00;;;0.60;;
55090;SDS011;40985;53.180;5.800;2023-08-01T08:14:51;6.35;;;0.40;;
55090;SDS011;40985;53.180;5.800;2023-08-01T08:17:16;9.68;;;0.55;;
55090;SDS011;40985;53.180;5.800;2023-08-01T08:19:42;8.60;;;0.60;;
55090;SDS011;40985;53.180;5.800;2023-08-01T08:22:08;7.78;;;0.40;;
55090;SDS011;40985;53.180;5.800;2023-08-01T08:24:33;8.45;;;0.40;;
55090;SDS011;40985;53.180;5.800;2023-08-01T08:26:59;3.47;;;0.30;;
55090;SDS011;40985;53.180;5.800;2023-08-01T08:29:24;5.75;;;0.77;;
55090;SDS011;40985;53.180;5.800;2023-08-01T08:31:50;4.60;;;0.35;;
55090;SDS011;40985;53.180;5.800;2023-08-01T08:34:16;5.30;;;0.50;;
55090;SDS011;40985;53.180;5.800;2023-08-01T08:36:42;8.48;;;0.68;;
55090;SDS011;40985;53.180;5.800;2023-08-01T08:39:07;3.25;;;0.30;;
55090;SDS011;40985;53.180;5.800;2023-08-01T08:41:35;2.33;;;0.20;;
55090;SDS011;40985;53.180;5.800;2023-08-01T08:44:14;6.07;;;0.68;;
55090;SDS011;40985;53.180;5.800;2023-08-01T08:46:50;3.33;;;0.20;;
55090;SDS011;40985;53.180;5.800;2023-08-01T08:49:18;4.55;;;0.60;;
55090;SDS011;40985;53.180;5.800;2023-08-01T08:51:46;3.67;;;0.20;;
55090;SDS011;40985;53.180;5.800;2023-08-01T08:54:12;3.70;;;0.38;;
55090;SDS011;40985;53.180;5.800;2023-08-01T08:56:39;5.65;;;0.30;;
55090;SDS011;40985;53.180;5.800;2023-08-01T08:59:06;4.18;;;0.52;;
55090;SDS011;40985;53.180;5.800;2023-08-01T09:01:33;5.43;;;0.38;;
55090;SDS011;40985;53.180;5.800;2023-08-01T09:03:59;5.30;;;0.30;;
55090;SDS011;40985;53.180;5.800;2023-08-01T09:06:28;5.68;;;0.30;;
55090;SDS011;40985;53.180;5.800;2023-08-01T09:08:58;2.45;;;0.38;;
55090;SDS011;40985;53.180;5.800;2023-08-01T09:11:29;4.53;;;0.30;;
55090;SDS011;40985;53.180;5.800;2023-08-01T09:14:06;5.20;;;0.30;;
55090;SDS011;40985;53.180;5.800;2023-08-01T09:16:32;1.95;;;0.30;;
55090;SDS011;40985;53.180;5.800;2023-08-01T09:18:58;3.50;;;0.35;;
55090;SDS011;40985;53.180;5.800;2023-08-01T09:21:24;5.80;;;0.32;;
55090;SDS011;40985;53.180;5.800;2023-08-01T09:23:50;5.10;;;0.40;;
55090;SDS011;40985;53.180;5.800;2023-08-01T09:26:17;7.95;;;0.60;;
55090;SDS011;40985;53.180;5.800;2023-08-01T09:28:44;6.82;;;0.50;;
55090;SDS011;40985;53.180;5.800;2023-08-01T09:31:30;5.78;;;0.50;;
55090;SDS011;40985;53.180;5.800;2023-08-01T09:33:59;5.25;;;0.47;;
55090;SDS011;40985;53.180;5.800;2023-08-01T09:36:25;5.03;;;0.45;;
55090;SDS011;40985;53.180;5.800;2023-08-01T09:38:51;4.57;;;0.45;;
55090;SDS011;40985;53.180;5.800;2023-08-01T09:41:22;6.00;;;0.30;;
55090;SDS011;40985;53.180;5.800;2023-08-01T09:43:48;5.05;;;0.30;;
55090;SDS011;40985;53.180;5.800;2023-08-01T09:46:15;2.55;;;0.20;;
55090;SDS011;40985;53.180;5.800;2023-08-01T09:48:41;4.30;;;0.30;;
55090;SDS011;40985;53.180;5.800;2023-08-01T09:51:08;5.63;;;0.40;;
55090;SDS011;40985;53.180;5.800;2023-08-01T09:53:34;6.20;;;0.32;;
55090;SDS011;40985;53.180;5.800;2023-08-01T09:56:01;4.95;;;0.30;;
55090;SDS011;40985;53.180;5.800;2023-08-01T09:58:30;5.68;;;0.30;;
55090;SDS011;40985;53.180;5.800;2023-08-01T10:00:59;3.17;;;0.30;;
55090;SDS011;40985;53.180;5.800;2023-08-01T10:03:29;2.88;;;0.30;;
55090;SDS011;40985;53.180;5.800;2023-08-01T10:05:55;4.68;;;0.57;;
55090;SDS011;40985;53.180;5.800;2023-08-01T10:08:22;4.75;;;0.32;;
55090;SDS011;40985;53.180;5.800;2023-08-01T10:10:48;3.83;;;0.32;;
55090;SDS011;40985;53.180;5.800;2023-08-01T10:13:14;5.47;;;0.30;;
55090;SDS011;40985;53.180;5.800;2023-08-01T10:15:41;6.13;;;0.70;;
55090;SDS011;40985;53.180;5.800;2023-08-01T10:18:07;4.30;;;0.77;;
55090;SDS011;40985;53.180;5.800;2023-08-01T10:20:36;2.97;;;0.20;;
55090;SDS011;40985;53.180;5.800;2023-08-01T10:23:02;4.43;;;0.38;;
55090;SDS011;40985;53.180;5.800;2023-08-01T10:25:29;3.88;;;0.50;;
55090;SDS011;40985;53.180;5.800;2023-08-01T10:30:27;6.82;;;0.35;;
55090;SDS011;40985;53.180;5.800;2023-08-01T10:32:54;4.93;;;0.32;;
55090;SDS011;40985;53.180;5.800;2023-08-01T10:35:42;4.72;;;0.60;;
55090;SDS011;40985;53.180;5.800;2023-08-01T10:38:09;4.78;;;0.43;;
55090;SDS011;40985;53.180;5.800;2023-08-01T10:40:39;4.38;;;0.40;;
55090;SDS011;40985;53.180;5.800;2023-08-01T10:43:23;2.83;;;0.20;;
55090;SDS011;40985;53.180;5.800;2023-08-01T10:46:02;1.93;;;0.20;;
55090;SDS011;40985;53.180;5.800;2023-08-01T10:48:28;3.05;;;0.20;;
55090;SDS011;40985;53.180;5.800;2023-08-01T10:50:55;6.40;;;0.38;;
55090;SDS011;40985;53.180;5.800;2023-08-01T10:53:24;3.53;;;0.20;;
55090;SDS011;40985;53.180;5.800;2023-08-01T10:55:49;3.38;;;0.40;;
55090;SDS011;40985;53.180;5.800;2023-08-01T10:58:15;7.50;;;0.40;;
55090;SDS011;40985;53.180;5.800;2023-08-01T11:00:41;5.63;;;0.60;;
55090;SDS011;40985;53.180;5.800;2023-08-01T11:03:07;4.05;;;0.40;;
55090;SDS011;40985;53.180;5.800;2023-08-01T11:05:33;4.18;;;0.43;;
55090;SDS011;40985;53.180;5.800;2023-08-01T11:08:00;7.50;;;1.40;;
55090;SDS011;40985;53.180;5.800;2023-08-01T11:10:27;4.72;;;0.40;;
55090;SDS011;40985;53.180;5.800;2023-08-01T11:12:54;4.90;;;0.43;;
55090;SDS011;40985;53.180;5.800;2023-08-01T11:15:20;5.47;;;0.63;;
55090;SDS011;40985;53.180;5.800;2023-08-01T11:17:47;4.47;;;0.40;;
55090;SDS011;40985;53.180;5.800;2023-08-01T11:20:20;7.28;;;0.57;;
55090;SDS011;40985;53.180;5.800;2023-08-01T11:22:58;7.15;;;0.30;;
55090;SDS011;40985;53.180;5.800;2023-08-01T11:25:41;8.63;;;0.50;;
55090;SDS011;40985;53.180;5.800;2023-08-01T11:28:09;6.10;;;0.60;;
55090;SDS011;40985;53.180;5.800;2023-08-01T11:30:36;3.53;;;0.40;;
55090;SDS011;40985;53.180;5.800;2023-08-01T11:33:02;5.93;;;0.40;;
55090;SDS011;40985;53.180;5.800;2023-08-01T11:35:42;3.50;;;0.50;;
55090;SDS011;40985;53.180;5.800;2023-08-01T11:38:08;4.35;;;0.30;;
55090;SDS011;40985;53.180;5.800;2023-08-01T11:40:33;5.32;;;0.40;;
55090;SDS011;40985;53.180;5.800;2023-08-01T11:42:59;7.75;;;0.60;;
55090;SDS011;40985;53.180;5.800;2023-08-01T11:45:25;4.80;;;0.40;;
55090;SDS011;40985;53.180;5.800;2023-08-01T11:47:51;5.57;;;0.45;;
55090;SDS011;40985;53.180;5.800;2023-08-01T11:50:20;6.35;;;0.63;;
55090;SDS011;40985;53.180;5.800;2023-08-01T11:52:48;3.72;;;0.35;;
55090;SDS011;40985;53.180;5.800;2023-08-01T11:55:20;9.32;;;0.50;;
55090;SDS011;40985;53.180;5.800;2023-08-01T11:57:57;3.65;;;0.75;;
55090;SDS011;40985;53.180;5.800;2023-08-01T12:00:24;3.75;;;0.30;;
55090;SDS011;40985;53.180;5.800;2023-08-01T12:02:51;5.93;;;0.50;;
55090;SDS011;40985;53.180;5.800;2023-08-01T12:05:27;2.75;;;0.47;;
55090;SDS011;40985;53.180;5.800;2023-08-01T12:07:54;3.55;;;0.32;;
55090;SDS011;40985;53.180;5.800;2023-08-01T12:10:20;4.05;;;0.30;;
55090;SDS011;40985;53.180;5.800;2023-08-01T12:12:46;3.13;;;0.20;;
55090;SDS011;40985;53.180;5.800;2023-08-01T12:15:16;7.93;;;0.50;;
55090;SDS011;40985;53.180;5.800;2023-08-01T12:17:41;5.32;;;0.50;;
55090;SDS011;40985;53.180;5.800;2023-08-01T12:20:07;4.90;;;0.40;;
55090;SDS011;40985;53.180;5.800;2023-08-01T12:22:33;4.55;;;0.70;;
55090;SDS011;40985;53.180;5.800;2023-08-01T12:24:59;5.80;;;1.13;;
55090;SDS011;40985;53.180;5.800;2023-08-01T12:27:24;6.47;;;0.60;;
55090;SDS011;40985;53.180;5.800;2023-08-01T12:29:50;5.70;;;0.60;;
55090;SDS011;40985;53.180;5.800;2023-08-01T12:32:16;5.85;;;1.08;;
55090;SDS011;40985;53.180;5.800;2023-08-01T12:34:41;4.63;;;0.57;;
55090;SDS011;40985;53.180;5.800;2023-08-01T12:37:07;6.03;;;0.47;;
55090;SDS011;40985;53.180;5.800;2023-08-01T12:39:33;5.72;;;0.40;;
55090;SDS011;40985;53.180;5.800;2023-08-01T12:41:58;8.00;;;0.60;;
55090;SDS011;40985;53.180;5.800;2023-08-01T12:44:24;5.75;;;0.70;;
55090;SDS011;40985;53.180;5.800;2023-08-01T12:46:50;6.07;;;0.60;;
55090;SDS011;40985;53.180;5.800;2023-08-01T12:49:15;5.38;;;0.50;;
55090;SDS011;40985;53.180;5.800;2023-08-01T12:51:42;2.95;;;0.22;;
55090;SDS011;40985;53.180;5.800;2023-08-01T12:54:08;3.78;;;0.38;;
55090;SDS011;40985;53.180;5.800;2023-08-01T12:56:34;5.97;;;0.43;;
55090;SDS011;40985;53.180;5.800;2023-08-01T12:58:59;5.05;;;0.30;;
55090;SDS011;40985;53.180;5.800;2023-08-01T13:01:25;7.55;;;0.88;;
55090;SDS011;40985;53.180;5.800;2023-08-01T13:03:51;6.80;;;0.57;;
55090;SDS011;40985;53.180;5.800;2023-08-01T13:06:16;4.00;;;0.60;;
55090;SDS011;40985;53.180;5.800;2023-08-01T13:08:42;8.48;;;0.93;;
55090;SDS011;40985;53.180;5.800;2023-08-01T13:11:11;2.65;;;0.40;;
55090;SDS011;40985;53.180;5.800;2023-08-01T13:13:38;3.80;;;0.20;;
55090;SDS011;40985;53.180;5.800;2023-08-01T13:16:05;3.42;;;0.20;;
55090;SDS011;40985;53.180;5.800;2023-08-01T13:18:31;3.15;;;0.30;;
55090;SDS011;40985;53.180;5.800;2023-08-01T13:20:57;6.05;;;0.50;;
55090;SDS011;40985;53.180;5.800;2023-08-01T13:23:24;5.30;;;0.80;;
55090;SDS011;40985;53.180;5.800;2023-08-01T13:25:50;5.25;;;0.20;;
55090;SDS011;40985;53.180;5.800;2023-08-01T13:28:16;5.05;;;0.30;;
55090;SDS011;40985;53.180;5.800;2023-08-01T13:30:42;2.92;;;0.30;;
55090;SDS011;40985;53.180;5.800;2023-08-01T13:33:07;2.47;;;0.30;;
55090;SDS011;40985;53.180;5.800;2023-08-01T13:35:33;5.65;;;0.30;;
55090;SDS011;40985;53.180;5.800;2023-08-01T13:37:59;5.95;;;0.50;;
55090;SDS011;40985;53.180;5.800;2023-08-01T13:40:25;5.05;;;0.40;;
55090;SDS011;40985;53.180;5.800;2023-08-01T13:42:51;5.10;;;0.57;;
55090;SDS011;40985;53.180;5.800;2023-08-01T13:45:16;7.32;;;0.70;;
55090;SDS011;40985;53.180;5.800;2023-08-01T13:47:42;3.22;;;0.30;;
55090;SDS011;40985;53.180;5.800;2023-08-01T13:50:08;5.05;;;0.30;;
55090;SDS011;40985;53.180;5.800;2023-08-01T13:52:36;7.72;;;0.38;;
55090;SDS011;40985;53.180;5.800;2023-08-01T13:55:02;7.10;;;0.55;;
55090;SDS011;40985;53.180;5.800;2023-08-01T13:57:28;6.40;;;0.60;;
55090;SDS011;40985;53.180;5.800;2023-08-01T13:59:53;2.15;;;0.20;;
55090;SDS011;40985;53.180;5.800;2023-08-01T14:02:19;3.13;;;0.20;;
55090;SDS011;40985;53.180;5.800;2023-08-01T14:04:45;2.60;;;0.50;;
55090;SDS011;40985;53.180;5.800;2023-08-01T14:07:10;1.73;;;0.20;;
55090;SDS011;40985;53.180;5.800;2023-08-01T14:09:36;3.30;;;0.10;;
55090;SDS011;40985;53.180;5.800;2023-08-01T14:12:02;2.58;;;0.30;;
55090;SDS011;40985;53.180;5.800;2023-08-01T14:14:29;2.80;;;0.20;;
55090;SDS011;40985;53.180;5.800;2023-08-01T14:16:54;3.45;;;0.30;;
55090;SDS011;40985;53.180;5.800;2023-08-01T14:19:20;3.80;;;0.22;;
55090;SDS011;40985;53.180;5.800;2023-08-01T14:21:45;3.42;;;0.38;;
55090;SDS011;40985;53.180;5.800;2023-08-01T14:24:11;1.88;;;0.20;;
55090;SDS011;40985;53.180;5.800;2023-08-01T14:26:37;3.38;;;0.20;;
55090;SDS011;40985;53.180;5.800;2023-08-01T14:29:03;3.78;;;0.25;;
55090;SDS011;40985;53.180;5.800;2023-08-01T14:31:28;3.42;;;0.20;;
55090;SDS011;40985;53.180;5.800;2023-08-01T14:33:54;4.07;;;0.35;;
55090;SDS011;40985;53.180;5.800;2023-08-01T14:36:20;5.18;;;0.55;;
55090;SDS011;40985;53.180;5.800;2023-08-01T14:38:45;7.80;;;0.32;;
55090;SDS011;40985;53.180;5.800;2023-08-01T14:41:16;3.45;;;0.30;;
55090;SDS011;40985;53.180;5.800;2023-08-01T14:43:42;4.60;;;0.77;;